sensor_id;sensor_type;location;lat;lon;timestamp;temperature;humidity
29237;DHT22;16266;50.866;4.398;2022-09-12T00:01:22;15.60;99.90
29237;DHT22;16266;50.866;4.398;2022-09-12T00:03:57;15.60;99.90
29237;DHT22;16266;50.866;4.398;2022-09-12T00:06:31;15.70;99.90
29237;DHT22;16266;50.866;4.398;2022-09-12T00:09:01;15.90;99.90
29237;DHT22;16266;50.866;4.398;2022-09-12T00:11:27;15.90;99.90
29237;DHT22;16266;50.866;4.398;2022-09-12T00:13:58;15.80;99.90
29237;DHT22;16266;50.866;4.398;2022-09-12T00:16:25;15.80;99.90
29237;DHT22;16266;50.866;4.398;2022-09-12T00:18:51;15.90;99.90
29237;DHT22;16266;50.866;4.398;2022-09-12T00:21:18;15.90;99.90
29237;DHT22;16266;50.866;4.398;2022-09-12T00:23:45;15.90;99.90
29237;DHT22;16266;50.866;4.398;2022-09-12T00:26:12;15.80;99.90
29237;DHT22;16266;50.866;4.398;2022-09-12T00:28:39;15.80;99.90
29237;DHT22;16266;50.866;4.398;2022-09-12T00:31:08;15.80;99.90
29237;DHT22;16266;50.866;4.398;2022-09-12T00:33:34;15.80;99.90
29237;DHT22;16266;50.866;4.398;2022-09-12T00:36:05;15.90;99.90
29237;DHT22;16266;50.866;4.398;2022-09-12T00:38:31;15.80;99.90
29237;DHT22;16266;50.866;4.398;2022-09-12T00:40:57;15.80;99.90
29237;DHT22;16266;50.866;4.398;2022-09-12T00:43:43;15.90;99.90
29237;DHT22;16266;50.866;4.398;2022-09-12T00:48:43;15.80;99.90
29237;DHT22;16266;50.866;4.398;2022-09-12T00:51:10;15.90;99.90
29237;DHT22;16266;50.866;4.398;2022-09-12T00:53:38;15.70;99.90
29237;DHT22;16266;50.866;4.398;2022-09-12T00:56:06;15.70;99.90
29237;DHT22;16266;50.866;4.398;2022-09-12T00:58:57;15.70;99.90
29237;DHT22;16266;50.866;4.398;2022-09-12T01:01:24;15.60;99.90
29237;DHT22;16266;50.866;4.398;2022-09-12T01:03:50;15.60;99.90
29237;DHT22;16266;50.866;4.398;2022-09-12T01:06:25;15.60;99.90
29237;DHT22;16266;50.866;4.398;2022-09-12T01:08:51;15.60;99.90
29237;DHT22;16266;50.866;4.398;2022-09-12T01:11:20;15.50;99.90
29237;DHT22;16266;50.866;4.398;2022-09-12T01:13:47;15.60;99.90
29237;DHT22;16266;50.866;4.398;2022-09-12T01:16:13;15.60;99.90
29237;DHT22;16266;50.866;4.398;2022-09-12T01:19:15;15.80;99.90
29237;DHT22;16266;50.866;4.398;2022-09-12T01:22:14;15.60;99.90
29237;DHT22;16266;50.866;4.398;2022-09-12T01:25:06;15.60;99.90
29237;DHT22;16266;50.866;4.398;2022-09-12T01:30:45;15.60;99.90
29237;DHT22;16266;50.866;4.398;2022-09-12T01:33:21;15.60;99.90
29237;DHT22;16266;50.866;4.398;2022-09-12T01:38:41;15.60;99.90
29237;DHT22;16266;50.866;4.398;2022-09-12T01:41:21;15.50;99.90
29237;DHT22;16266;50.866;4.398;2022-09-12T01:46:44;15.60;99.90
29237;DHT22;16266;50.866;4.398;2022-09-12T01:49:20;15.60;99.90
29237;DHT22;16266;50.866;4.398;2022-09-12T01:51:59;15.50;99.90
29237;DHT22;16266;50.866;4.398;2022-09-12T01:54:58;15.40;99.90
29237;DHT22;16266;50.866;4.398;2022-09-12T01:57:32;15.30;99.90
29237;DHT22;16266;50.866;4.398;2022-09-12T02:00:05;15.30;99.90
29237;DHT22;16266;50.866;4.398;2022-09-12T02:05:34;15.40;99.90
29237;DHT22;16266;50.866;4.398;2022-09-12T02:08:13;15.40;99.90
29237;DHT22;16266;50.866;4.398;2022-09-12T02:10:48;15.40;99.90
29237;DHT22;16266;50.866;4.398;2022-09-12T02:13:20;15.50;99.90
29237;DHT22;16266;50.866;4.398;2022-09-12T02:15:55;15.40;99.90
29237;DHT22;16266;50.866;4.398;2022-09-12T02:18:25;15.50;99.90
29237;DHT22;16266;50.866;4.398;2022-09-12T02:20:54;15.50;99.90
29237;DHT22;16266;50.866;4.398;2022-09-12T02:23:27;15.40;99.90
29237;DHT22;16266;50.866;4.398;2022-09-12T02:26:00;15.30;99.90
29237;DHT22;16266;50.866;4.398;2022-09-12T02:28:34;15.30;99.90
29237;DHT22;16266;50.866;4.398;2022-09-12T02:31:21;15.30;99.90
29237;DHT22;16266;50.866;4.398;2022-09-12T02:33:56;15.30;99.90
29237;DHT22;16266;50.866;4.398;2022-09-12T02:36:37;15.30;99.90
29237;DHT22;16266;50.866;4.398;2022-09-12T02:39:06;15.30;99.90
29237;DHT22;16266;50.866;4.398;2022-09-12T02:41:31;15.30;99.90
29237;DHT22;16266;50.866;4.398;2022-09-12T02:43:57;15.50;99.90
29237;DHT22;16266;50.866;4.398;2022-09-12T02:46:37;15.40;99.90
29237;DHT22;16266;50.866;4.398;2022-09-12T02:49:03;15.40;99.90
29237;DHT22;16266;50.866;4.398;2022-09-12T02:51:29;15.40;99.90
29237;DHT22;16266;50.866;4.398;2022-09-12T02:53:56;15.50;99.90
29237;DHT22;16266;50.866;4.398;2022-09-12T02:56:26;15.50;99.90
29237;DHT22;16266;50.866;4.398;2022-09-12T02:58:53;15.50;99.90
29237;DHT22;16266;50.866;4.398;2022-09-12T03:18:01;15.30;99.90
29237;DHT22;16266;50.866;4.398;2022-09-12T03:23:32;15.20;99.90
29237;DHT22;16266;50.866;4.398;2022-09-12T03:26:16;15.20;99.90
29237;DHT22;16266;50.866;4.398;2022-09-12T03:28:43;15.10;99.90
29237;DHT22;16266;50.866;4.398;2022-09-12T03:31:15;15.10;99.90
29237;DHT22;16266;50.866;4.398;2022-09-12T03:33:41;15.10;99.90
29237;DHT22;16266;50.866;4.398;2022-09-12T03:36:15;15.20;99.90
29237;DHT22;16266;50.866;4.398;2022-09-12T03:38:41;15.20;99.90
29237;DHT22;16266;50.866;4.398;2022-09-12T03:41:06;15.20;99.90
29237;DHT22;16266;50.866;4.398;2022-09-12T03:43:32;15.20;99.90
29237;DHT22;16266;50.866;4.398;2022-09-12T03:45:58;15.10;99.90
29237;DHT22;16266;50.866;4.398;2022-09-12T03:48:23;15.20;99.90
29237;DHT22;16266;50.866;4.398;2022-09-12T03:50:49;15.30;99.90
29237;DHT22;16266;50.866;4.398;2022-09-12T03:53:14;15.30;99.90
29237;DHT22;16266;50.866;4.398;2022-09-12T03:55:40;15.20;99.90
29237;DHT22;16266;50.866;4.398;2022-09-12T03:58:05;15.30;99.90
29237;DHT22;16266;50.866;4.398;2022-09-12T04:00:31;15.20;99.90
29237;DHT22;16266;50.866;4.398;2022-09-12T04:02:58;15.20;99.90
29237;DHT22;16266;50.866;4.398;2022-09-12T04:05:24;15.10;99.90
29237;DHT22;16266;50.866;4.398;2022-09-12T04:07:51;15.10;99.90
29237;DHT22;16266;50.866;4.398;2022-09-12T04:10:17;15.10;99.90
29237;DHT22;16266;50.866;4.398;2022-09-12T04:12:42;15.10;99.90
29237;DHT22;16266;50.866;4.398;2022-09-12T04:15:09;15.20;99.90
29237;DHT22;16266;50.866;4.398;2022-09-12T04:17:34;15.10;99.90
29237;DHT22;16266;50.866;4.398;2022-09-12T04:20:01;15.10;99.90
29237;DHT22;16266;50.866;4.398;2022-09-12T04:22:27;15.20;99.90
29237;DHT22;16266;50.866;4.398;2022-09-12T04:24:54;15.20;99.90
29237;DHT22;16266;50.866;4.398;2022-09-12T04:27:19;15.20;99.90
29237;DHT22;16266;50.866;4.398;2022-09-12T04:29:45;15.10;99.90
29237;DHT22;16266;50.866;4.398;2022-09-12T04:32:10;15.10;99.90
29237;DHT22;16266;50.866;4.398;2022-09-12T04:34:36;15.10;99.90
29237;DHT22;16266;50.866;4.398;2022-09-12T04:37:02;15.10;99.90
29237;DHT22;16266;50.866;4.398;2022-09-12T04:39:27;15.10;99.90
29237;DHT22;16266;50.866;4.398;2022-09-12T04:41:53;15.00;99.90
29237;DHT22;16266;50.866;4.398;2022-09-12T04:44:19;15.00;99.90
29237;DHT22;16266;50.866;4.398;2022-09-12T04:46:46;15.00;99.90
29237;DHT22;16266;50.866;4.398;2022-09-12T04:49:13;14.90;99.90
29237;DHT22;16266;50.866;4.398;2022-09-12T04:51:41;14.90;99.90
29237;DHT22;16266;50.866;4.398;2022-09-12T04:54:12;15.00;99.90
29237;DHT22;16266;50.866;4.398;2022-09-12T04:56:41;15.10;99.90
29237;DHT22;16266;50.866;4.398;2022-09-12T04:59:07;15.20;99.90
29237;DHT22;16266;50.866;4.398;2022-09-12T05:01:34;15.10;99.90
29237;DHT22;16266;50.866;4.398;2022-09-12T05:04:00;15.00;99.90
29237;DHT22;16266;50.866;4.398;2022-09-12T05:06:34;15.10;99.90
29237;DHT22;16266;50.866;4.398;2022-09-12T05:09:01;15.10;99.90
29237;DHT22;16266;50.866;4.398;2022-09-12T05:11:30;15.00;99.90
29237;DHT22;16266;50.866;4.398;2022-09-12T05:13:56;15.00;99.90
29237;DHT22;16266;50.866;4.398;2022-09-12T05:16:23;15.00;99.90
29237;DHT22;16266;50.866;4.398;2022-09-12T05:18:50;15.00;99.90
29237;DHT22;16266;50.866;4.398;2022-09-12T05:21:19;15.00;99.90
29237;DHT22;16266;50.866;4.398;2022-09-12T05:23:45;15.10;99.90
29237;DHT22;16266;50.866;4.398;2022-09-12T05:26:15;15.00;99.90
29237;DHT22;16266;50.866;4.398;2022-09-12T05:28:41;15.10;99.90
29237;DHT22;16266;50.866;4.398;2022-09-12T05:33:34;15.10;99.90
29237;DHT22;16266;50.866;4.398;2022-09-12T05:36:01;15.20;99.90
29237;DHT22;16266;50.866;4.398;2022-09-12T05:38:28;15.20;99.90
29237;DHT22;16266;50.866;4.398;2022-09-12T05:41:07;15.20;99.90
29237;DHT22;16266;50.866;4.398;2022-09-12T05:43:35;15.20;99.90
29237;DHT22;16266;50.866;4.398;2022-09-12T05:46:11;15.10;99.90
29237;DHT22;16266;50.866;4.398;2022-09-12T05:48:39;15.00;99.90
29237;DHT22;16266;50.866;4.398;2022-09-12T05:51:08;15.30;99.90
29237;DHT22;16266;50.866;4.398;2022-09-12T05:53:35;15.50;99.90
29237;DHT22;16266;50.866;4.398;2022-09-12T05:58:32;15.90;99.90
29237;DHT22;16266;50.866;4.398;2022-09-12T06:01:03;16.10;99.90
29237;DHT22;16266;50.866;4.398;2022-09-12T06:03:29;16.30;99.90
29237;DHT22;16266;50.866;4.398;2022-09-12T06:05:56;16.50;99.90
29237;DHT22;16266;50.866;4.398;2022-09-12T06:08:21;16.50;99.90
29237;DHT22;16266;50.866;4.398;2022-09-12T06:10:47;16.70;99.90
29237;DHT22;16266;50.866;4.398;2022-09-12T06:13:14;16.70;99.90
29237;DHT22;16266;50.866;4.398;2022-09-12T06:15:39;17.00;99.90
29237;DHT22;16266;50.866;4.398;2022-09-12T06:18:05;17.60;99.90
29237;DHT22;16266;50.866;4.398;2022-09-12T06:20:30;18.40;99.90
29237;DHT22;16266;50.866;4.398;2022-09-12T06:22:56;19.30;99.90
29237;DHT22;16266;50.866;4.398;2022-09-12T06:25:21;20.30;99.90
29237;DHT22;16266;50.866;4.398;2022-09-12T06:27:47;21.20;99.90
29237;DHT22;16266;50.866;4.398;2022-09-12T06:30:13;22.10;99.90
29237;DHT22;16266;50.866;4.398;2022-09-12T06:32:38;22.70;99.90
29237;DHT22;16266;50.866;4.398;2022-09-12T06:35:04;23.40;99.90
29237;DHT22;16266;50.866;4.398;2022-09-12T06:37:30;24.00;99.90
29237;DHT22;16266;50.866;4.398;2022-09-12T06:39:56;24.90;99.90
29237;DHT22;16266;50.866;4.398;2022-09-12T06:42:22;25.30;99.90
29237;DHT22;16266;50.866;4.398;2022-09-12T06:44:48;25.80;99.90
29237;DHT22;16266;50.866;4.398;2022-09-12T06:47:14;26.50;99.90
29237;DHT22;16266;50.866;4.398;2022-09-12T06:49:40;27.10;99.90
29237;DHT22;16266;50.866;4.398;2022-09-12T06:52:05;27.80;99.90
29237;DHT22;16266;50.866;4.398;2022-09-12T06:54:31;28.20;99.90
29237;DHT22;16266;50.866;4.398;2022-09-12T06:56:57;28.40;99.70
29237;DHT22;16266;50.866;4.398;2022-09-12T06:59:22;29.10;97.80
29237;DHT22;16266;50.866;4.398;2022-09-12T07:01:49;29.30;94.60
29237;DHT22;16266;50.866;4.398;2022-09-12T07:04:15;29.40;92.70
29237;DHT22;16266;50.866;4.398;2022-09-12T07:06:41;29.80;92.00
29237;DHT22;16266;50.866;4.398;2022-09-12T07:09:11;30.10;88.70
29237;DHT22;16266;50.866;4.398;2022-09-12T07:11:38;30.30;87.20
29237;DHT22;16266;50.866;4.398;2022-09-12T07:14:06;30.60;83.90
29237;DHT22;16266;50.866;4.398;2022-09-12T07:16:33;30.80;78.70
29237;DHT22;16266;50.866;4.398;2022-09-12T07:19:01;31.00;75.90
29237;DHT22;16266;50.866;4.398;2022-09-12T07:21:27;30.90;73.40
29237;DHT22;16266;50.866;4.398;2022-09-12T07:23:53;30.50;72.40
29237;DHT22;16266;50.866;4.398;2022-09-12T07:26:23;30.70;72.30
29237;DHT22;16266;50.866;4.398;2022-09-12T07:28:52;31.10;72.00
29237;DHT22;16266;50.866;4.398;2022-09-12T07:31:19;31.50;68.90
29237;DHT22;16266;50.866;4.398;2022-09-12T07:33:45;31.80;65.50
29237;DHT22;16266;50.866;4.398;2022-09-12T07:36:13;32.10;65.10
29237;DHT22;16266;50.866;4.398;2022-09-12T07:38:39;31.90;61.90
29237;DHT22;16266;50.866;4.398;2022-09-12T07:41:23;32.10;60.50
29237;DHT22;16266;50.866;4.398;2022-09-12T07:43:53;32.80;57.40
29237;DHT22;16266;50.866;4.398;2022-09-12T07:46:20;32.70;56.10
29237;DHT22;16266;50.866;4.398;2022-09-12T07:48:50;32.40;55.90
29237;DHT22;16266;50.866;4.398;2022-09-12T07:51:17;32.50;56.90
29237;DHT22;16266;50.866;4.398;2022-09-12T07:53:43;33.20;54.80
29237;DHT22;16266;50.866;4.398;2022-09-12T07:56:09;33.70;52.10
29237;DHT22;16266;50.866;4.398;2022-09-12T07:58:37;34.00;48.20
29237;DHT22;16266;50.866;4.398;2022-09-12T08:01:08;34.60;47.40
29237;DHT22;16266;50.866;4.398;2022-09-12T08:03:34;35.20;45.30
29237;DHT22;16266;50.866;4.398;2022-09-12T08:06:04;35.40;43.90
29237;DHT22;16266;50.866;4.398;2022-09-12T08:08:31;35.00;43.00
29237;DHT22;16266;50.866;4.398;2022-09-12T08:10:58;34.00;44.20
29237;DHT22;16266;50.866;4.398;2022-09-12T08:13:24;33.40;43.30
29237;DHT22;16266;50.866;4.398;2022-09-12T08:15:50;33.40;43.50
29237;DHT22;16266;50.866;4.398;2022-09-12T08:18:16;33.30;43.30
29237;DHT22;16266;50.866;4.398;2022-09-12T08:20:41;32.90;45.00
29237;DHT22;16266;50.866;4.398;2022-09-12T08:23:07;33.10;44.30
29237;DHT22;16266;50.866;4.398;2022-09-12T08:25:33;33.40;43.50
29237;DHT22;16266;50.866;4.398;2022-09-12T08:27:59;33.80;43.50
29237;DHT22;16266;50.866;4.398;2022-09-12T08:30:26;34.60;41.70
29237;DHT22;16266;50.866;4.398;2022-09-12T08:32:51;35.30;38.20
29237;DHT22;16266;50.866;4.398;2022-09-12T08:35:17;35.60;38.60
29237;DHT22;16266;50.866;4.398;2022-09-12T08:37:42;35.50;36.10
29237;DHT22;16266;50.866;4.398;2022-09-12T08:40:14;35.00;36.80
29237;DHT22;16266;50.866;4.398;2022-09-12T08:43:06;34.80;37.60
29237;DHT22;16266;50.866;4.398;2022-09-12T08:45:49;34.60;36.60
29237;DHT22;16266;50.866;4.398;2022-09-12T08:48:18;34.70;36.40
29237;DHT22;16266;50.866;4.398;2022-09-12T08:50:44;35.20;35.60
29237;DHT22;16266;50.866;4.398;2022-09-12T08:53:16;36.20;34.70
29237;DHT22;16266;50.866;4.398;2022-09-12T08:55:46;36.50;32.70
29237;DHT22;16266;50.866;4.398;2022-09-12T08:58:18;36.70;31.10
29237;DHT22;16266;50.866;4.398;2022-09-12T09:15:13;38.40;25.90
29237;DHT22;16266;50.866;4.398;2022-09-12T09:18:20;38.70;24.90
29237;DHT22;16266;50.866;4.398;2022-09-12T09:25:58;39.60;22.80
29237;DHT22;16266;50.866;4.398;2022-09-12T09:28:45;38.70;23.00
29237;DHT22;16266;50.866;4.398;2022-09-12T09:31:16;38.40;23.30
29237;DHT22;16266;50.866;4.398;2022-09-12T09:33:42;38.60;22.50
29237;DHT22;16266;50.866;4.398;2022-09-12T09:36:20;38.90;22.80
29237;DHT22;16266;50.866;4.398;2022-09-12T09:39:21;39.80;20.90
29237;DHT22;16266;50.866;4.398;2022-09-12T09:42:00;40.40;19.70
29237;DHT22;16266;50.866;4.398;2022-09-12T09:44:31;40.20;18.80
29237;DHT22;16266;50.866;4.398;2022-09-12T09:46:58;40.10;19.10
29237;DHT22;16266;50.866;4.398;2022-09-12T09:49:28;40.70;19.10
29237;DHT22;16266;50.866;4.398;2022-09-12T09:51:56;40.10;18.40
29237;DHT22;16266;50.866;4.398;2022-09-12T09:54:27;39.40;18.70
29237;DHT22;16266;50.866;4.398;2022-09-12T09:56:55;39.90;18.00
29237;DHT22;16266;50.866;4.398;2022-09-12T09:59:28;40.50;17.00
29237;DHT22;16266;50.866;4.398;2022-09-12T10:02:19;40.90;16.40
29237;DHT22;16266;50.866;4.398;2022-09-12T10:04:55;41.10;16.70
29237;DHT22;16266;50.866;4.398;2022-09-12T10:07:22;41.40;16.30
29237;DHT22;16266;50.866;4.398;2022-09-12T10:10:14;42.60;16.30
29237;DHT22;16266;50.866;4.398;2022-09-12T10:12:40;42.20;15.50
29237;DHT22;16266;50.866;4.398;2022-09-12T10:15:32;41.60;15.30
29237;DHT22;16266;50.866;4.398;2022-09-12T10:17:59;40.40;15.90
29237;DHT22;16266;50.866;4.398;2022-09-12T10:20:42;40.40;16.50
29237;DHT22;16266;50.866;4.398;2022-09-12T10:23:35;41.20;16.40
29237;DHT22;16266;50.866;4.398;2022-09-12T10:26:07;42.40;15.00
29237;DHT22;16266;50.866;4.398;2022-09-12T10:28:41;42.80;14.40
29237;DHT22;16266;50.866;4.398;2022-09-12T10:31:10;42.00;14.70
29237;DHT22;16266;50.866;4.398;2022-09-12T10:33:46;40.80;15.10
29237;DHT22;16266;50.866;4.398;2022-09-12T10:36:20;39.30;16.30
29237;DHT22;16266;50.866;4.398;2022-09-12T10:39:05;39.20;17.30
29237;DHT22;16266;50.866;4.398;2022-09-12T10:41:36;40.10;15.90
29237;DHT22;16266;50.866;4.398;2022-09-12T10:44:27;40.30;16.20
29237;DHT22;16266;50.866;4.398;2022-09-12T10:46:54;41.60;15.20
29237;DHT22;16266;50.866;4.398;2022-09-12T10:49:29;41.50;14.70
29237;DHT22;16266;50.866;4.398;2022-09-12T10:51:57;41.10;15.00
29237;DHT22;16266;50.866;4.398;2022-09-12T10:54:39;40.10;15.60
29237;DHT22;16266;50.866;4.398;2022-09-12T10:57:31;40.10;15.70
29237;DHT22;16266;50.866;4.398;2022-09-12T11:00:14;40.60;15.40
29237;DHT22;16266;50.866;4.398;2022-09-12T11:03:05;41.80;14.80
29237;DHT22;16266;50.866;4.398;2022-09-12T11:05:45;42.30;14.30
29237;DHT22;16266;50.866;4.398;2022-09-12T11:08:17;41.30;14.30
29237;DHT22;16266;50.866;4.398;2022-09-12T11:11:08;39.70;14.40
29237;DHT22;16266;50.866;4.398;2022-09-12T11:13:59;38.40;16.10
29237;DHT22;16266;50.866;4.398;2022-09-12T11:16:48;38.40;16.10
29237;DHT22;16266;50.866;4.398;2022-09-12T11:29:49;39.80;15.20
29237;DHT22;16266;50.866;4.398;2022-09-12T11:32:43;38.80;15.50
29237;DHT22;16266;50.866;4.398;2022-09-12T11:40:50;40.30;14.90
29237;DHT22;16266;50.866;4.398;2022-09-12T11:43:38;39.80;15.10
29237;DHT22;16266;50.866;4.398;2022-09-12T11:51:40;39.80;14.80
29237;DHT22;16266;50.866;4.398;2022-09-12T11:59:54;39.90;15.30
29237;DHT22;16266;50.866;4.398;2022-09-12T12:02:28;40.30;14.20
29237;DHT22;16266;50.866;4.398;2022-09-12T12:05:20;39.10;15.00
29237;DHT22;16266;50.866;4.398;2022-09-12T12:07:52;39.50;15.00
29237;DHT22;16266;50.866;4.398;2022-09-12T12:10:25;40.40;14.10
29237;DHT22;16266;50.866;4.398;2022-09-12T12:12:53;41.20;13.70
29237;DHT22;16266;50.866;4.398;2022-09-12T12:15:21;41.10;13.50
29237;DHT22;16266;50.866;4.398;2022-09-12T12:18:14;42.00;13.60
29237;DHT22;16266;50.866;4.398;2022-09-12T12:20:40;40.50;13.70
29237;DHT22;16266;50.866;4.398;2022-09-12T12:23:06;39.50;14.20
29237;DHT22;16266;50.866;4.398;2022-09-12T12:25:51;39.20;14.70
29237;DHT22;16266;50.866;4.398;2022-09-12T12:31:15;39.60;15.40
29237;DHT22;16266;50.866;4.398;2022-09-12T12:36:32;37.60;15.80
29237;DHT22;16266;50.866;4.398;2022-09-12T12:41:58;36.70;17.00
29237;DHT22;16266;50.866;4.398;2022-09-12T12:47:27;36.30;16.80
29237;DHT22;16266;50.866;4.398;2022-09-12T12:49:57;36.20;16.90
29237;DHT22;16266;50.866;4.398;2022-09-12T12:52:25;37.00;15.70
29237;DHT22;16266;50.866;4.398;2022-09-12T12:54:54;37.30;16.40
29237;DHT22;16266;50.866;4.398;2022-09-12T12:59:54;37.70;16.50
29237;DHT22;16266;50.866;4.398;2022-09-12T13:02:34;37.30;16.50
29237;DHT22;16266;50.866;4.398;2022-09-12T13:05:15;36.70;16.70
29237;DHT22;16266;50.866;4.398;2022-09-12T13:07:42;36.00;17.20
29237;DHT22;16266;50.866;4.398;2022-09-12T13:10:21;34.70;18.90
29237;DHT22;16266;50.866;4.398;2022-09-12T13:12:48;34.20;19.10
29237;DHT22;16266;50.866;4.398;2022-09-12T13:15:46;34.10;19.80
29237;DHT22;16266;50.866;4.398;2022-09-12T13:18:47;34.10;20.10
29237;DHT22;16266;50.866;4.398;2022-09-12T13:21:15;34.70;19.60
29237;DHT22;16266;50.866;4.398;2022-09-12T13:23:42;34.90;19.40
29237;DHT22;16266;50.866;4.398;2022-09-12T13:26:22;35.00;19.40
29237;DHT22;16266;50.866;4.398;2022-09-12T13:28:47;34.80;18.90
29237;DHT22;16266;50.866;4.398;2022-09-12T13:31:23;33.80;19.50
29237;DHT22;16266;50.866;4.398;2022-09-12T13:34:02;33.10;20.70
29237;DHT22;16266;50.866;4.398;2022-09-12T13:39:47;32.90;21.10
29237;DHT22;16266;50.866;4.398;2022-09-12T13:42:37;32.80;20.90
29237;DHT22;16266;50.866;4.398;2022-09-12T13:45:21;32.40;21.70
29237;DHT22;16266;50.866;4.398;2022-09-12T13:47:53;32.20;21.60
29237;DHT22;16266;50.866;4.398;2022-09-12T13:50:23;32.00;22.30
29237;DHT22;16266;50.866;4.398;2022-09-12T13:53:00;31.80;22.10
29237;DHT22;16266;50.866;4.398;2022-09-12T13:55:35;31.50;22.20
29237;DHT22;16266;50.866;4.398;2022-09-12T13:58:16;31.30;22.70
29237;DHT22;16266;50.866;4.398;2022-09-12T14:00:43;31.20;23.30
29237;DHT22;16266;50.866;4.398;2022-09-12T14:03:26;31.30;23.50
29237;DHT22;16266;50.866;4.398;2022-09-12T14:06:10;31.10;23.30
29237;DHT22;16266;50.866;4.398;2022-09-12T14:08:40;31.20;23.70
29237;DHT22;16266;50.866;4.398;2022-09-12T14:11:10;30.80;22.90
29237;DHT22;16266;50.866;4.398;2022-09-12T14:13:36;30.40;23.60
29237;DHT22;16266;50.866;4.398;2022-09-12T14:16:04;30.00;24.10
29237;DHT22;16266;50.866;4.398;2022-09-12T14:18:35;29.80;25.20
29237;DHT22;16266;50.866;4.398;2022-09-12T14:21:11;29.50;25.60
29237;DHT22;16266;50.866;4.398;2022-09-12T14:23:40;29.20;25.80
29237;DHT22;16266;50.866;4.398;2022-09-12T14:26:10;29.00;26.30
29237;DHT22;16266;50.866;4.398;2022-09-12T14:28:39;29.00;26.10
29237;DHT22;16266;50.866;4.398;2022-09-12T14:33:51;28.80;27.20
29237;DHT22;16266;50.866;4.398;2022-09-12T14:36:28;28.50;27.30
29237;DHT22;16266;50.866;4.398;2022-09-12T14:39:01;28.60;28.10
29237;DHT22;16266;50.866;4.398;2022-09-12T14:41:30;28.50;28.00
29237;DHT22;16266;50.866;4.398;2022-09-12T14:44:00;28.50;28.30
29237;DHT22;16266;50.866;4.398;2022-09-12T14:49:09;28.30;28.40
29237;DHT22;16266;50.866;4.398;2022-09-12T14:57:03;28.00;29.10
29237;DHT22;16266;50.866;4.398;2022-09-12T14:59:37;27.90;29.10
29237;DHT22;16266;50.866;4.398;2022-09-12T15:09:56;27.70;29.40
29237;DHT22;16266;50.866;4.398;2022-09-12T15:12:22;27.60;29.80
29237;DHT22;16266;50.866;4.398;2022-09-12T15:14:47;27.60;29.70
29237;DHT22;16266;50.866;4.398;2022-09-12T15:17:13;27.60;30.60
29237;DHT22;16266;50.866;4.398;2022-09-12T15:19:39;27.50;30.40
29237;DHT22;16266;50.866;4.398;2022-09-12T15:22:04;27.60;30.80
29237;DHT22;16266;50.866;4.398;2022-09-12T15:24:30;27.70;30.90
29237;DHT22;16266;50.866;4.398;2022-09-12T15:26:56;27.50;31.40
29237;DHT22;16266;50.866;4.398;2022-09-12T15:29:21;27.50;31.90
29237;DHT22;16266;50.866;4.398;2022-09-12T15:31:50;27.40;31.90
29237;DHT22;16266;50.866;4.398;2022-09-12T15:34:15;27.40;32.50
29237;DHT22;16266;50.866;4.398;2022-09-12T15:36:41;27.40;31.90
29237;DHT22;16266;50.866;4.398;2022-09-12T15:39:08;27.40;31.90
29237;DHT22;16266;50.866;4.398;2022-09-12T15:41:36;27.30;32.00
29237;DHT22;16266;50.866;4.398;2022-09-12T15:44:06;27.30;32.30
29237;DHT22;16266;50.866;4.398;2022-09-12T15:46:35;27.20;32.60
29237;DHT22;16266;50.866;4.398;2022-09-12T15:49:01;27.20;32.30
29237;DHT22;16266;50.866;4.398;2022-09-12T15:51:26;27.10;31.90
29237;DHT22;16266;50.866;4.398;2022-09-12T15:53:52;27.10;32.20
29237;DHT22;16266;50.866;4.398;2022-09-12T15:56:19;27.10;32.80
29237;DHT22;16266;50.866;4.398;2022-09-12T15:58:46;26.90;32.90
29237;DHT22;16266;50.866;4.398;2022-09-12T16:01:16;26.80;33.10
29237;DHT22;16266;50.866;4.398;2022-09-12T16:03:45;26.80;33.70
29237;DHT22;16266;50.866;4.398;2022-09-12T16:06:11;26.70;34.90
29237;DHT22;16266;50.866;4.398;2022-09-12T16:08:37;26.50;34.50
29237;DHT22;16266;50.866;4.398;2022-09-12T16:11:06;26.30;35.30
29237;DHT22;16266;50.866;4.398;2022-09-12T16:13:32;26.30;35.10
29237;DHT22;16266;50.866;4.398;2022-09-12T16:15:59;26.20;35.40
29237;DHT22;16266;50.866;4.398;2022-09-12T16:18:26;26.00;36.40
29237;DHT22;16266;50.866;4.398;2022-09-12T16:20:55;26.00;37.20
29237;DHT22;16266;50.866;4.398;2022-09-12T16:23:22;26.10;37.30
29237;DHT22;16266;50.866;4.398;2022-09-12T16:26:05;26.10;37.50
29237;DHT22;16266;50.866;4.398;2022-09-12T16:28:31;26.20;37.80
29237;DHT22;16266;50.866;4.398;2022-09-12T16:31:00;26.20;38.20
29237;DHT22;16266;50.866;4.398;2022-09-12T16:33:26;26.20;39.00
29237;DHT22;16266;50.866;4.398;2022-09-12T16:35:59;26.20;39.80
29237;DHT22;16266;50.866;4.398;2022-09-12T16:38:25;26.30;39.30
29237;DHT22;16266;50.866;4.398;2022-09-12T16:40:58;26.30;39.30
29237;DHT22;16266;50.866;4.398;2022-09-12T16:43:23;26.40;39.40
29237;DHT22;16266;50.866;4.398;2022-09-12T16:45:49;26.40;40.00
29237;DHT22;16266;50.866;4.398;2022-09-12T16:48:15;26.30;40.10
29237;DHT22;16266;50.866;4.398;2022-09-12T16:50:40;26.20;40.50
29237;DHT22;16266;50.866;4.398;2022-09-12T16:53:06;26.30;41.50
29237;DHT22;16266;50.866;4.398;2022-09-12T16:55:31;26.30;41.30
29237;DHT22;16266;50.866;4.398;2022-09-12T16:57:57;26.20;42.30
29237;DHT22;16266;50.866;4.398;2022-09-12T17:00:23;26.20;42.60
29237;DHT22;16266;50.866;4.398;2022-09-12T17:02:48;26.20;42.60
29237;DHT22;16266;50.866;4.398;2022-09-12T17:05:14;26.20;42.40
29237;DHT22;16266;50.866;4.398;2022-09-12T17:07:42;26.30;42.70
29237;DHT22;16266;50.866;4.398;2022-09-12T17:10:08;26.20;43.40
29237;DHT22;16266;50.866;4.398;2022-09-12T17:12:33;26.20;43.90
29237;DHT22;16266;50.866;4.398;2022-09-12T17:14:59;26.10;44.70
29237;DHT22;16266;50.866;4.398;2022-09-12T17:17:25;25.90;45.90
29237;DHT22;16266;50.866;4.398;2022-09-12T17:19:50;25.70;47.00
29237;DHT22;16266;50.866;4.398;2022-09-12T17:22:17;25.60;47.90
29237;DHT22;16266;50.866;4.398;2022-09-12T17:24:43;25.60;48.30
29237;DHT22;16266;50.866;4.398;2022-09-12T17:27:08;25.50;49.20
29237;DHT22;16266;50.866;4.398;2022-09-12T17:29:34;25.40;50.30
29237;DHT22;16266;50.866;4.398;2022-09-12T17:32:01;25.20;51.30
29237;DHT22;16266;50.866;4.398;2022-09-12T17:34:27;25.20;53.00
29237;DHT22;16266;50.866;4.398;2022-09-12T17:36:52;25.10;54.40
29237;DHT22;16266;50.866;4.398;2022-09-12T17:39:18;25.00;56.00
29237;DHT22;16266;50.866;4.398;2022-09-12T17:41:44;25.00;56.90
29237;DHT22;16266;50.866;4.398;2022-09-12T17:44:13;24.80;59.40
29237;DHT22;16266;50.866;4.398;2022-09-12T17:46:39;24.70;61.90
29237;DHT22;16266;50.866;4.398;2022-09-12T17:49:07;24.40;64.90
29237;DHT22;16266;50.866;4.398;2022-09-12T17:51:35;24.30;68.70
29237;DHT22;16266;50.866;4.398;2022-09-12T17:54:06;24.20;71.20